createdAt,value
2019-02-03T00:02:21.177Z,39.43
2019-02-03T00:07:27.169Z,39.40
2019-02-03T00:12:32.967Z,39.90
2019-02-03T00:17:38.339Z,40.80
2019-02-03T00:22:44.360Z,40.17
2019-02-03T00:27:50.005Z,42.33
2019-02-03T00:32:57.004Z,41.80
2019-02-03T00:38:03.408Z,42.43
2019-02-03T00:43:09.478Z,42.67
2019-02-03T00:48:15.551Z,41.50
2019-02-03T00:53:21.219Z,41.87
2019-02-03T00:58:26.792Z,39.53
2019-02-03T01:03:32.385Z,42.10
2019-02-03T01:08:38.625Z,39.60
2019-02-03T01:13:44.382Z,39.33
2019-02-03T01:18:50.376Z,37.93
2019-02-03T01:23:56.707Z,39.27
2019-02-03T01:29:02.830Z,39.23
2019-02-03T01:34:08.451Z,36.73
2019-02-03T01:39:14.677Z,37.33
2019-02-03T01:44:23.120Z,34.50
2019-02-03T01:49:28.300Z,35.60
2019-02-03T01:54:34.182Z,39.37
2019-02-03T01:59:39.997Z,40.83
2019-02-03T02:04:45.731Z,39.00
2019-02-03T02:09:51.770Z,39.60
2019-02-03T02:14:57.390Z,39.87
2019-02-03T02:20:03.176Z,39.53
2019-02-03T02:25:09.224Z,37.37
2019-02-03T02:30:17.884Z,40.03
2019-02-03T02:35:23.802Z,39.10
2019-02-03T02:40:29.597Z,41.60
2019-02-03T02:45:35.808Z,44.33
2019-02-03T02:50:44.261Z,42.53
2019-02-03T02:55:50.028Z,42.03
2019-02-03T03:00:56.089Z,40.93
2019-02-03T03:06:01.693Z,43.97
2019-02-03T03:11:07.354Z,42.47
2019-02-03T03:16:12.786Z,42.73
2019-02-03T03:21:18.222Z,43.50
2019-02-03T03:26:23.878Z,46.37
2019-02-03T03:31:29.594Z,45.83
2019-02-03T03:36:35.217Z,45.70
2019-02-03T03:41:40.951Z,47.17
2019-02-03T03:46:46.748Z,44.37
2019-02-03T03:51:52.276Z,45.67
2019-02-03T03:56:57.988Z,44.47
2019-02-03T04:02:03.917Z,42.67
2019-02-03T04:07:09.676Z,42.97
2019-02-03T04:12:18.315Z,42.50
2019-02-03T04:17:24.042Z,40.70
2019-02-03T04:22:30.007Z,40.33
2019-02-03T04:27:35.756Z,41.43
2019-02-03T04:32:41.515Z,40.73
2019-02-03T04:37:47.576Z,41.43
2019-02-03T04:42:53.295Z,41.67
2019-02-03T04:47:59.408Z,41.03
2019-02-03T04:53:05.443Z,40.47
2019-02-03T04:58:11.419Z,43.43
2019-02-03T05:03:17.410Z,41.07
2019-02-03T05:08:23.668Z,41.53
2019-02-03T05:13:29.736Z,42.50
2019-02-03T05:18:35.475Z,40.07
2019-02-03T05:23:41.297Z,41.03
2019-02-03T05:28:47.581Z,41.10
2019-02-03T05:33:53.121Z,41.67
2019-02-03T05:38:58.588Z,43.00
2019-02-03T05:44:04.520Z,41.80
2019-02-03T05:49:10.219Z,44.87
2019-02-03T05:54:16.599Z,44.47
2019-02-03T05:59:22.457Z,41.60
2019-02-03T06:04:28.052Z,43.57
2019-02-03T06:09:36.708Z,44.17
2019-02-03T06:14:41.824Z,43.53
2019-02-03T06:19:47.723Z,44.37
2019-02-03T06:24:53.325Z,43.40
2019-02-03T06:29:59.197Z,44.10
2019-02-03T06:35:04.884Z,43.90
2019-02-03T06:40:10.669Z,43.03
2019-02-03T06:45:25.440Z,42.90
2019-02-03T06:50:31.368Z,41.23
2019-02-03T06:55:37.685Z,40.87
2019-02-03T07:00:44.184Z,41.33
2019-02-03T07:05:50.459Z,38.03
2019-02-03T07:10:56.119Z,39.23
2019-02-03T07:16:02.038Z,39.63
2019-02-03T07:21:08.209Z,37.20
2019-02-03T07:26:13.872Z,38.50
2019-02-03T07:31:19.490Z,37.40
2019-02-03T07:36:24.904Z,38.23
2019-02-03T07:41:30.340Z,36.20
2019-02-03T07:46:35.810Z,36.77
2019-02-03T07:51:41.615Z,36.33
2019-02-03T07:56:47.646Z,35.13
2019-02-03T08:01:53.179Z,34.67
2019-02-03T08:06:58.870Z,34.43
2019-02-03T08:12:04.810Z,33.87
2019-02-03T08:17:10.411Z,34.53
2019-02-03T08:22:15.872Z,34.17
2019-02-03T08:27:21.397Z,31.77
2019-02-03T08:32:27.110Z,34.43
2019-02-03T08:37:32.683Z,30.97
2019-02-03T08:42:38.354Z,31.27
2019-02-03T08:47:45.509Z,32.50
2019-02-03T08:52:51.604Z,32.73
2019-02-03T08:57:58.012Z,32.40
2019-02-03T09:03:03.567Z,29.93
2019-02-03T09:08:09.522Z,30.43
2019-02-03T09:13:15.124Z,29.73
2019-02-03T09:18:20.967Z,29.23
2019-02-03T09:23:26.422Z,24.63
2019-02-03T09:28:31.894Z,26.23
2019-02-03T09:33:37.576Z,26.67
2019-02-03T09:38:43.275Z,23.63
2019-02-03T09:43:48.816Z,23.37
2019-02-03T09:48:54.244Z,22.33
2019-02-03T09:53:59.730Z,21.20
2019-02-03T09:59:05.583Z,19.87
2019-02-03T10:04:11.306Z,21.53
2019-02-03T10:09:16.968Z,20.67
2019-02-03T10:14:22.789Z,18.93
2019-02-03T10:19:28.541Z,18.27
2019-02-03T10:24:42.032Z,18.17
2019-02-03T10:29:41.817Z,17.97
2019-02-03T10:34:47.584Z,17.13
2019-02-03T10:39:53.055Z,19.03
2019-02-03T10:44:58.525Z,18.13
2019-02-03T10:50:04.024Z,15.87
2019-02-03T10:55:09.662Z,17.83
2019-02-03T11:00:21.896Z,17.20
2019-02-03T11:05:33.651Z,15.53
2019-02-03T11:10:39.381Z,15.67
2019-02-03T11:15:45.015Z,13.53
2019-02-03T11:20:52.666Z,14.20
2019-02-03T11:26:00.109Z,14.20
2019-02-03T11:31:05.581Z,14.00
2019-02-03T11:36:11.228Z,14.13
2019-02-03T11:41:16.994Z,10.83
2019-02-03T11:46:22.785Z,10.20
2019-02-03T11:51:28.548Z,9.67
2019-02-03T11:56:34.618Z,8.77
2019-02-03T12:01:40.116Z,8.37
2019-02-03T12:06:46.099Z,8.87
2019-02-03T12:12:00.838Z,7.57
2019-02-03T12:16:58.932Z,6.13
2019-02-03T12:22:04.836Z,6.73
2019-02-03T12:27:10.354Z,7.33
2019-02-03T12:32:15.891Z,7.50
2019-02-03T12:37:21.425Z,6.07
2019-02-03T12:42:28.007Z,6.37
2019-02-03T12:47:33.644Z,5.67
2019-02-03T12:52:39.252Z,5.93
2019-02-03T12:57:46.661Z,5.23
2019-02-03T13:02:51.946Z,4.63
2019-02-03T13:07:57.797Z,4.50
2019-02-03T13:13:03.200Z,6.07
2019-02-03T13:18:09.184Z,6.07
2019-02-03T13:23:16.556Z,5.50
2019-02-03T13:28:22.088Z,5.07
2019-02-03T13:33:27.918Z,5.77
2019-02-03T13:38:33.397Z,4.90
2019-02-03T13:43:38.946Z,4.10
2019-02-03T13:48:44.882Z,4.57
2019-02-03T13:53:50.519Z,4.13
2019-02-03T13:58:56.039Z,4.13
2019-02-03T14:04:01.575Z,3.90
2019-02-03T14:09:09.890Z,4.00
2019-02-03T14:14:15.520Z,3.93
2019-02-03T14:19:21.155Z,4.40
2019-02-03T14:24:27.225Z,3.67
2019-02-03T14:29:32.679Z,4.03
2019-02-03T14:34:39.048Z,3.30
2019-02-03T14:39:45.448Z,4.17
2019-02-03T14:44:50.983Z,4.33
2019-02-03T14:49:56.545Z,4.10
2019-02-03T14:55:02.247Z,5.00
2019-02-03T15:00:41.532Z,4.37
2019-02-03T15:05:47.485Z,3.87
2019-02-03T15:10:53.107Z,3.83
2019-02-03T15:15:59.933Z,4.10
2019-02-03T15:21:05.913Z,3.80
2019-02-03T15:26:11.378Z,3.80
2019-02-03T15:31:16.903Z,3.90
2019-02-03T15:36:22.458Z,4.53
2019-02-03T15:41:32.939Z,4.07
2019-02-03T15:46:38.835Z,4.10
2019-02-03T15:51:44.341Z,4.17
2019-02-03T15:56:50.212Z,4.00
2019-02-03T16:01:56.679Z,4.20
2019-02-03T16:07:02.151Z,4.13
2019-02-03T16:12:08.090Z,3.90
2019-02-03T16:17:13.488Z,4.70
2019-02-03T16:22:19.111Z,4.67
2019-02-03T16:27:24.959Z,4.87
2019-02-03T16:32:30.469Z,4.57
2019-02-03T16:37:36.095Z,4.53
2019-02-03T16:42:42.047Z,4.40
2019-02-03T16:47:47.766Z,4.40
2019-02-03T16:52:53.232Z,4.90
2019-02-03T16:57:58.679Z,4.57
2019-02-03T17:03:04.145Z,4.57
2019-02-03T17:08:09.843Z,4.90
2019-02-03T17:13:15.423Z,4.97
2019-02-03T17:18:21.036Z,5.47
2019-02-03T17:23:26.623Z,5.17
2019-02-03T17:28:32.447Z,5.27
2019-02-03T17:33:37.909Z,5.20
2019-02-03T17:38:43.319Z,5.23
2019-02-03T17:43:49.065Z,5.23
2019-02-03T17:48:54.741Z,5.27
2019-02-03T17:54:00.207Z,5.10
2019-02-03T17:59:07.768Z,5.45
2019-02-03T18:04:13.925Z,5.43
2019-02-03T18:09:19.623Z,4.60
2019-02-03T18:14:25.085Z,5.90
2019-02-03T18:19:30.604Z,5.87
2019-02-03T18:24:36.367Z,5.60
2019-02-03T18:29:41.726Z,6.13
2019-02-03T18:34:47.106Z,5.57
2019-02-03T18:39:52.391Z,5.20
2019-02-03T18:44:57.760Z,6.13
2019-02-03T18:50:03.139Z,5.43
2019-02-03T18:55:11.024Z,5.97
2019-02-03T19:00:20.627Z,6.77
2019-02-03T19:05:28.872Z,5.37
2019-02-03T19:10:34.325Z,5.67
2019-02-03T19:15:39.628Z,6.30
2019-02-03T19:20:45.086Z,7.07
2019-02-03T19:26:00.522Z,6.50
2019-02-03T19:31:09.186Z,7.30
2019-02-03T19:36:14.514Z,6.90
2019-02-03T19:41:19.859Z,6.10
2019-02-03T19:46:25.206Z,7.50
2019-02-03T19:51:30.800Z,7.30
2019-02-03T19:56:36.115Z,7.53
2019-02-03T20:01:41.606Z,7.07
2019-02-03T20:06:46.938Z,7.27
2019-02-03T20:11:52.434Z,8.37
2019-02-03T20:16:57.804Z,7.70
2019-02-03T20:22:03.508Z,8.30
2019-02-03T20:27:08.888Z,9.03
2019-02-03T20:32:14.256Z,8.63
2019-02-03T20:37:19.740Z,9.80
2019-02-03T20:42:25.343Z,9.57
2019-02-03T20:47:30.954Z,9.23
2019-02-03T20:52:36.236Z,7.70
2019-02-03T20:57:41.538Z,8.90
2019-02-03T21:02:47.335Z,7.20
2019-02-03T21:07:52.697Z,8.47
2019-02-03T21:13:10.094Z,9.67
2019-02-03T21:18:07.755Z,9.40
2019-02-03T21:23:12.779Z,8.20
2019-02-03T21:28:18.076Z,8.80
2019-02-03T21:33:23.614Z,8.43
2019-02-03T21:38:28.921Z,8.67
2019-02-03T21:43:34.194Z,8.47
2019-02-03T21:48:39.470Z,8.93
2019-02-03T21:53:44.768Z,9.23
2019-02-03T21:58:50.193Z,10.13
2019-02-03T22:03:55.545Z,9.30
2019-02-03T22:09:01.035Z,10.27
2019-02-03T22:14:06.718Z,9.67
2019-02-03T22:19:11.992Z,10.30
2019-02-03T22:24:17.371Z,10.30
2019-02-03T22:29:22.731Z,10.30
2019-02-03T22:34:28.070Z,11.43
2019-02-03T22:39:33.739Z,10.80
2019-02-03T22:44:39.151Z,11.43
2019-02-03T22:49:44.459Z,11.57
2019-02-03T22:54:49.853Z,12.13
2019-02-03T22:59:55.216Z,11.60
2019-02-03T23:05:00.579Z,11.20
2019-02-03T23:10:06.471Z,12.37
2019-02-03T23:15:11.828Z,13.93
2019-02-03T23:20:17.309Z,13.13
2019-02-03T23:25:22.678Z,12.33
2019-02-03T23:30:28.042Z,13.73
2019-02-03T23:35:33.740Z,13.77
2019-02-03T23:40:39.132Z,13.30
2019-02-03T23:45:44.423Z,13.90
2019-02-03T23:50:49.757Z,15.17
2019-02-03T23:55:55.084Z,14.37
